Time;durP1;ratioP1;P1;durP2;ratioP2;P2;SDS_P1;SDS_P2;PMS_P1;PMS_P2;Temp;Humidity;BMP_temperature;BMP_pressure;BME280_temperature;BME280_humidity;BME280_pressure;Samples;Min_cycle;Max_cycle;Signal;HPM_P1;HPM_P2
2023/05/29 00:00:33;;;;;;;;;;;;;;;12.68;100.00;95601.94;10471781;28;1880;-69
2023/05/29 00:05:36;;;;;;;;;;;;;;;12.73;100.00;95606.47;10476831;28;1865;-69
2023/05/29 00:10:39;;;;;;;;;;;;;;;12.60;100.00;95597.19;10471643;28;1981;-72
2023/05/29 00:15:41;;;;;;;;;;;;;;;12.54;100.00;95590.25;10469693;28;1908;-70
2023/05/29 00:20:43;;;;;;;;;;;;;;;12.45;100.00;95600.88;10476246;28;2296;-70
2023/05/29 00:25:46;;;;;;;;;;;;;;;12.44;100.00;95602.78;10477396;28;2178;-70
2023/05/29 00:30:49;;;;;;;;;;;;;;;12.30;100.00;95595.69;10469127;28;4492;-69
2023/05/29 00:35:51;;;;;;;;;;;;;;;12.21;100.00;95592.00;10465085;28;2122;-69
2023/05/29 00:40:54;;;;;;;;;;;;;;;12.18;100.00;95594.19;10469736;28;2093;-69
2023/05/29 00:45:57;;;;;;;;;;;;;;;12.11;100.00;95593.75;10470507;28;1903;-70
2023/05/29 00:50:59;;;;;;;;;;;;;;;12.09;100.00;95590.53;10467512;28;1987;-74
2023/05/29 00:56:02;;;;;;;;;;;;;;;12.05;100.00;95589.50;10471506;28;1903;-71
2023/05/29 01:01:05;;;;;;;;;;;;;;;12.08;100.00;95596.19;10474416;28;1920;-70
2023/05/29 01:06:10;;;;;;;;;;;;;;;11.95;100.00;95596.88;10471597;28;1971;-70
2023/05/29 01:11:12;;;;;;;;;;;;;;;11.87;100.00;95598.31;10468112;28;1913;-70
2023/05/29 01:16:15;;;;;;;;;;;;;;;11.78;100.00;95600.81;10474866;28;2381;-70
2023/05/29 01:21:18;;;;;;;;;;;;;;;11.74;100.00;95599.78;10463322;28;1993;-70
2023/05/29 01:26:22;;;;;;;;;;;;;;;11.74;100.00;95594.38;10469498;28;2019;-71
2023/05/29 01:31:25;;;;;;;;;;;;;;;11.69;100.00;95599.81;10472883;28;1963;-69
2023/05/29 01:36:28;;;;;;;;;;;;;;;11.63;100.00;95600.94;10471220;28;1904;-70
2023/05/29 01:41:31;;;;;;;;;;;;;;;11.53;100.00;95603.75;10470302;28;1916;-70
2023/05/29 01:46:33;;;;;;;;;;;;;;;11.44;100.00;95605.44;10472585;28;1974;-71
2023/05/29 01:51:37;;;;;;;;;;;;;;;11.31;100.00;95601.50;10476962;28;2258;-70
2023/05/29 01:56:39;;;;;;;;;;;;;;;11.18;100.00;95605.66;10472239;28;1919;-70
2023/05/29 02:01:42;;;;;;;;;;;;;;;11.11;100.00;95607.84;10464666;28;2098;-69
2023/05/29 02:06:44;;;;;;;;;;;;;;;11.04;100.00;95607.38;10472615;28;1967;-69
2023/05/29 02:11:47;;;;;;;;;;;;;;;11.09;100.00;95610.03;10468276;28;2391;-70
2023/05/29 02:16:51;;;;;;;;;;;;;;;11.12;100.00;95604.09;10473757;28;1958;-70
2023/05/29 02:21:54;;;;;;;;;;;;;;;11.13;100.00;95602.19;10470585;28;2007;-69
2023/05/29 02:26:57;;;;;;;;;;;;;;;11.21;100.00;95599.72;10466604;28;4497;-70
2023/05/29 02:31:59;;;;;;;;;;;;;;;11.03;100.00;95595.03;10470790;28;1969;-70
2023/05/29 02:37:02;;;;;;;;;;;;;;;10.95;100.00;95601.81;10470627;28;1980;-70
2023/05/29 02:42:05;;;;;;;;;;;;;;;10.94;100.00;95604.75;10470918;28;1892;-77
2023/05/29 02:47:08;;;;;;;;;;;;;;;10.92;100.00;95598.84;10476213;28;1979;-71
2023/05/29 02:52:10;;;;;;;;;;;;;;;10.85;100.00;95603.75;10474691;28;2165;-70
2023/05/29 02:57:13;;;;;;;;;;;;;;;10.77;100.00;95603.25;10479737;28;1950;-70
2023/05/29 03:02:15;;;;;;;;;;;;;;;10.76;100.00;95603.53;10473878;28;2121;-69
2023/05/29 03:07:18;;;;;;;;;;;;;;;10.76;100.00;95611.63;10476343;28;2318;-70
2023/05/29 03:12:21;;;;;;;;;;;;;;;10.69;100.00;95603.84;10479793;28;2006;-70
2023/05/29 03:17:24;;;;;;;;;;;;;;;10.70;100.00;95613.53;10479643;28;1959;-72
2023/05/29 03:22:27;;;;;;;;;;;;;;;10.86;100.00;95621.47;10476895;28;1944;-70
2023/05/29 03:27:29;;;;;;;;;;;;;;;10.83;100.00;95606.72;10475448;28;4433;-72
2023/05/29 03:32:32;;;;;;;;;;;;;;;10.83;100.00;95607.53;10477526;28;1962;-69
2023/05/29 03:37:35;;;;;;;;;;;;;;;10.75;100.00;95608.13;10476554;28;1943;-70
2023/05/29 03:42:37;;;;;;;;;;;;;;;10.77;100.00;95621.28;10471748;28;2315;-69
2023/05/29 03:47:40;;;;;;;;;;;;;;;10.77;100.00;95627.47;10473427;28;2053;-69
2023/05/29 03:52:43;;;;;;;;;;;;;;;10.83;100.00;95626.34;10477557;28;1938;-69
2023/05/29 03:57:46;;;;;;;;;;;;;;;10.88;100.00;95630.91;10474047;28;1939;-70
2023/05/29 04:02:48;;;;;;;;;;;;;;;11.01;100.00;95629.47;10476055;28;2666;-71
2023/05/29 04:07:51;;;;;;;;;;;;;;;11.13;100.00;95631.78;10481098;28;1982;-70
2023/05/29 04:13:05;;;;;;;;;;;;;;;11.53;100.00;95633.38;10476587;28;1973;-71
2023/05/29 04:18:08;;;;;;;;;;;;;;;11.66;100.00;95640.78;10475961;28;2079;-71
2023/05/29 04:23:10;;;;;;;;;;;;;;;11.78;100.00;95649.28;10469377;28;1975;-70
2023/05/29 04:28:13;;;;;;;;;;;;;;;12.01;100.00;95649.63;10476021;28;4393;-69
2023/05/29 04:33:15;;;;;;;;;;;;;;;12.04;100.00;95657.94;10473466;28;1990;-69
2023/05/29 04:38:19;;;;;;;;;;;;;;;12.13;100.00;95658.91;10476564;28;2173;-71
2023/05/29 04:43:22;;;;;;;;;;;;;;;12.51;100.00;95658.22;10478498;28;2062;-70
2023/05/29 04:48:25;;;;;;;;;;;;;;;12.66;100.00;95663.44;10473881;28;2270;-70
2023/05/29 04:53:28;;;;;;;;;;;;;;;12.85;100.00;95666.97;10479102;28;2017;-69
2023/05/29 04:58:30;;;;;;;;;;;;;;;13.37;100.00;95662.47;10473788;28;2470;-69
2023/05/29 05:03:33;;;;;;;;;;;;;;;13.47;100.00;95666.91;10475371;28;2045;-70
2023/05/29 05:08:36;;;;;;;;;;;;;;;13.86;100.00;95663.81;10474048;28;1987;-70
2023/05/29 05:13:39;;;;;;;;;;;;;;;14.11;100.00;95664.47;10479075;28;1980;-73
2023/05/29 05:18:42;;;;;;;;;;;;;;;14.49;100.00;95665.94;10473084;28;1928;-71
2023/05/29 05:23:45;;;;;;;;;;;;;;;14.58;100.00;95661.44;10468845;28;1958;-70
2023/05/29 05:28:59;;;;;;;;;;;;;;;14.97;100.00;95668.19;10470710;28;4449;-69
2023/05/29 05:34:02;;;;;;;;;;;;;;;15.36;100.00;95673.00;10470607;28;1959;-69
2023/05/29 05:39:05;;;;;;;;;;;;;;;15.58;100.00;95669.50;10476274;28;1967;-68
2023/05/29 05:44:07;;;;;;;;;;;;;;;15.79;100.00;95678.00;10474362;28;2217;-69
2023/05/29 05:49:10;;;;;;;;;;;;;;;16.20;100.00;95680.44;10472874;28;1951;-69
2023/05/29 05:54:12;;;;;;;;;;;;;;;15.62;100.00;95686.00;10480465;28;2022;-69
2023/05/29 05:59:15;;;;;;;;;;;;;;;15.89;100.00;95685.84;10475470;28;2172;-73
2023/05/29 06:04:18;;;;;;;;;;;;;;;16.38;100.00;95685.97;10466397;28;2024;-69
2023/05/29 06:09:21;;;;;;;;;;;;;;;16.89;100.00;95692.72;10469223;28;1996;-69
2023/05/29 06:14:24;;;;;;;;;;;;;;;16.80;100.00;95698.16;10470712;28;1976;-69
2023/05/29 06:19:27;;;;;;;;;;;;;;;17.03;100.00;95694.19;10480198;28;1920;-70
2023/05/29 06:24:30;;;;;;;;;;;;;;;17.29;100.00;95694.22;10478947;28;1963;-70
2023/05/29 06:29:33;;;;;;;;;;;;;;;17.98;100.00;95698.09;10475352;28;4519;-72
2023/05/29 06:34:36;;;;;;;;;;;;;;;18.16;100.00;95691.50;10471257;28;1966;-72
2023/05/29 06:39:41;;;;;;;;;;;;;;;18.83;100.00;95685.38;10473388;28;1998;-69
2023/05/29 06:44:44;;;;;;;;;;;;;;;18.83;100.00;95690.81;10480847;28;1978;-69
2023/05/29 06:49:46;;;;;;;;;;;;;;;18.70;100.00;95697.25;10486177;28;1994;-71
2023/05/29 06:54:49;;;;;;;;;;;;;;;18.09;100.00;95705.59;10475503;28;2261;-70
2023/05/29 06:59:52;;;;;;;;;;;;;;;18.49;100.00;95707.25;10477096;28;1967;-70
2023/05/29 07:04:55;;;;;;;;;;;;;;;18.24;100.00;95709.72;10479976;28;1986;-70
2023/05/29 07:09:57;;;;;;;;;;;;;;;17.92;100.00;95712.97;10482171;28;1973;-69
2023/05/29 07:14:59;;;;;;;;;;;;;;;18.11;100.00;95713.44;10474421;28;2523;-69
2023/05/29 07:20:03;;;;;;;;;;;;;;;18.66;100.00;95715.38;10478488;28;1986;-70
2023/05/29 07:25:05;;;;;;;;;;;;;;;19.00;100.00;95725.31;10473759;28;1964;-70
2023/05/29 07:30:07;;;;;;;;;;;;;;;19.42;100.00;95722.69;10475713;28;4248;-70
2023/05/29 07:35:10;;;;;;;;;;;;;;;19.87;100.00;95722.84;10480211;28;1969;-71
2023/05/29 07:40:12;;;;;;;;;;;;;;;19.52;100.00;95726.94;10480307;28;1951;-72
2023/05/29 07:45:15;;;;;;;;;;;;;;;18.72;100.00;95741.31;10478346;28;1975;-72
2023/05/29 07:50:17;;;;;;;;;;;;;;;18.87;100.00;95729.88;10479263;28;2238;-73
2023/05/29 07:55:19;;;;;;;;;;;;;;;18.82;100.00;95731.97;10478119;28;2031;-70
2023/05/29 08:00:22;;;;;;;;;;;;;;;19.02;100.00;95734.00;10475205;28;2029;-71
2023/05/29 08:05:25;;;;;;;;;;;;;;;18.91;100.00;95735.47;10478679;28;2173;-71
2023/05/29 08:10:28;;;;;;;;;;;;;;;19.10;100.00;95732.34;10481773;28;2213;-75
2023/05/29 08:15:31;;;;;;;;;;;;;;;18.98;100.00;95732.25;10476163;28;2044;-71
2023/05/29 08:20:34;;;;;;;;;;;;;;;18.83;100.00;95733.56;10474307;28;2075;-70
2023/05/29 08:25:37;;;;;;;;;;;;;;;19.39;100.00;95737.75;10474764;28;1946;-71
2023/05/29 08:30:40;;;;;;;;;;;;;;;19.63;100.00;95728.97;10476630;28;4414;-73
2023/05/29 08:35:42;;;;;;;;;;;;;;;19.45;100.00;95739.16;10473091;28;2033;-71
2023/05/29 08:40:45;;;;;;;;;;;;;;;19.80;100.00;95741.69;10476802;28;1999;-71
2023/05/29 08:45:47;;;;;;;;;;;;;;;19.60;100.00;95737.03;10474965;28;2244;-70
2023/05/29 08:50:51;;;;;;;;;;;;;;;19.87;100.00;95731.03;10466669;28;2038;-71
2023/05/29 08:55:55;;;;;;;;;;;;;;;20.57;97.40;95728.47;10478939;28;2012;-70
2023/05/29 09:00:58;;;;;;;;;;;;;;;20.88;95.36;95738.88;10475310;28;1951;-71
2023/05/29 09:06:03;;;;;;;;;;;;;;;20.26;97.03;95739.81;10469928;28;1997;-71
2023/05/29 09:11:05;;;;;;;;;;;;;;;20.89;92.13;95745.91;10472060;28;1906;-71
2023/05/29 09:16:08;;;;;;;;;;;;;;;20.82;92.60;95737.50;10467404;28;2014;-71
2023/05/29 09:21:11;;;;;;;;;;;;;;;20.32;93.26;95738.50;10474929;28;1916;-71
2023/05/29 09:26:13;;;;;;;;;;;;;;;20.70;88.84;95732.81;10467405;28;1951;-70
2023/05/29 09:31:16;;;;;;;;;;;;;;;21.10;83.75;95739.53;10468406;28;4548;-72
2023/05/29 09:36:19;;;;;;;;;;;;;;;20.98;87.11;95735.66;10470500;28;2087;-71
2023/05/29 09:41:23;;;;;;;;;;;;;;;21.34;82.73;95734.09;10461725;28;2369;-71
2023/05/29 09:57:13;;;;;;;;;;;;;;;21.45;66.32;95739.91;10787456;23;2237;-71
2023/05/29 10:02:16;;;;;;;;;;;;;;;21.54;67.30;95741.38;10297105;28;1881;-70
2023/05/29 10:07:20;;;;;;;;;;;;;;;21.53;61.06;95747.97;10394241;23;2306;-78
2023/05/29 10:12:22;;;;;;;;;;;;;;;21.17;57.91;95739.78;10432092;23;2347;-70
2023/05/29 10:17:24;;;;;;;;;;;;;;;21.31;57.48;95735.59;10337280;28;2114;-71
2023/05/29 10:22:27;;;;;;;;;;;;;;;21.59;56.46;95724.72;10332447;28;2082;-71
2023/05/29 10:27:29;;;;;;;;;;;;;;;21.57;59.72;95732.47;10328431;28;1960;-70
2023/05/29 10:32:31;;;;;;;;;;;;;;;21.85;54.19;95721.56;10336948;28;1898;-70
2023/05/29 10:37:34;;;;;;;;;;;;;;;22.40;53.02;95721.97;10334259;28;1902;-71
2023/05/29 10:42:37;;;;;;;;;;;;;;;22.58;54.33;95714.97;10338273;28;1946;-71
2023/05/29 10:47:39;;;;;;;;;;;;;;;22.01;51.11;95739.97;10337845;28;1852;-68
2023/05/29 10:52:41;;;;;;;;;;;;;;;23.26;49.15;95710.41;10341505;28;2020;-69
2023/05/29 10:57:44;;;;;;;;;;;;;;;23.63;48.49;95719.91;10341494;28;1814;-68
2023/05/29 11:02:47;;;;;;;;;;;;;;;23.56;45.19;95713.44;10345760;28;1930;-68
2023/05/29 11:07:50;;;;;;;;;;;;;;;23.33;44.45;95710.56;10344052;28;1928;-68
2023/05/29 11:12:52;;;;;;;;;;;;;;;24.23;42.60;95703.88;10345856;28;1948;-66
2023/05/29 11:17:55;;;;;;;;;;;;;;;24.27;41.00;95720.44;10341415;28;1923;-68
2023/05/29 11:22:58;;;;;;;;;;;;;;;24.20;41.57;95715.59;10341742;28;1930;-68
2023/05/29 11:28:00;;;;;;;;;;;;;;;22.98;41.75;95716.81;10337094;28;4459;-69
2023/05/29 11:33:05;;;;;;;;;;;;;;;22.78;44.82;95717.84;10346026;28;2303;-69
2023/05/29 11:38:07;;;;;;;;;;;;;;;22.29;42.18;95729.88;10341507;28;1876;-67
2023/05/29 11:43:09;;;;;;;;;;;;;;;22.74;39.71;95711.47;10342024;28;1839;-68
2023/05/29 11:48:12;;;;;;;;;;;;;;;22.98;40.64;95716.03;10338499;28;2003;-68
2023/05/29 11:53:14;;;;;;;;;;;;;;;22.91;41.45;95706.47;10341141;28;1989;-68
2023/05/29 11:58:17;;;;;;;;;;;;;;;22.48;40.31;95714.72;10341981;28;1821;-69
2023/05/29 12:03:20;;;;;;;;;;;;;;;22.89;42.09;95706.00;10347659;28;1835;-69
2023/05/29 12:08:24;;;;;;;;;;;;;;;23.24;41.52;95707.22;10344685;28;1875;-69
2023/05/29 12:13:26;;;;;;;;;;;;;;;23.18;41.55;95710.25;10342951;28;1938;-69
2023/05/29 12:18:29;;;;;;;;;;;;;;;23.25;41.32;95700.59;10347983;28;1922;-69
2023/05/29 12:23:32;;;;;;;;;;;;;;;23.19;41.50;95716.53;10347215;28;1836;-70
2023/05/29 12:28:34;;;;;;;;;;;;;;;22.90;44.51;95704.06;10345357;28;4634;-69
2023/05/29 12:33:37;;;;;;;;;;;;;;;22.67;43.87;95707.41;10345335;28;2058;-68
2023/05/29 12:38:39;;;;;;;;;;;;;;;22.96;41.01;95686.19;10342292;28;1844;-68
2023/05/29 12:43:42;;;;;;;;;;;;;;;23.33;41.63;95689.41;10343838;28;1859;-69
2023/05/29 12:48:44;;;;;;;;;;;;;;;23.24;42.06;95701.75;10341048;28;1955;-69
2023/05/29 12:53:47;;;;;;;;;;;;;;;22.79;38.63;95703.78;10348382;28;1915;-68
2023/05/29 12:58:49;;;;;;;;;;;;;;;23.54;40.50;95702.84;10345781;28;1867;-68
2023/05/29 13:03:52;;;;;;;;;;;;;;;23.88;43.22;95697.69;10341955;28;1924;-68
2023/05/29 13:08:55;;;;;;;;;;;;;;;22.58;44.60;95701.28;10345069;28;1923;-68
2023/05/29 13:13:57;;;;;;;;;;;;;;;23.10;44.88;95705.75;10344137;28;1950;-68
2023/05/29 13:19:00;;;;;;;;;;;;;;;23.36;44.68;95704.38;10343080;28;2024;-68
2023/05/29 13:24:02;;;;;;;;;;;;;;;23.05;43.50;95692.31;10340407;28;1877;-68
2023/05/29 13:29:05;;;;;;;;;;;;;;;23.55;44.41;95698.94;10342206;28;4433;-69
2023/05/29 13:34:08;;;;;;;;;;;;;;;23.24;42.84;95697.06;10341321;28;1956;-68
2023/05/29 13:39:10;;;;;;;;;;;;;;;23.05;39.76;95697.78;10340755;28;1910;-68
2023/05/29 13:44:12;;;;;;;;;;;;;;;22.95;40.84;95692.03;10338938;28;1900;-68
2023/05/29 13:49:15;;;;;;;;;;;;;;;23.45;42.96;95685.75;10340653;28;1963;-68
2023/05/29 13:54:18;;;;;;;;;;;;;;;23.79;42.81;95675.13;10340352;28;1911;-68
2023/05/29 13:59:20;;;;;;;;;;;;;;;24.13;41.75;95671.53;10335703;28;1870;-68
2023/05/29 14:04:23;;;;;;;;;;;;;;;23.54;41.70;95667.16;10337974;28;1900;-68
2023/05/29 14:09:27;;;;;;;;;;;;;;;23.04;43.55;95668.00;10340393;28;1997;-67
2023/05/29 14:14:30;;;;;;;;;;;;;;;23.36;43.42;95665.97;10337365;28;1985;-67
2023/05/29 14:19:32;;;;;;;;;;;;;;;23.61;40.70;95650.06;10335274;28;2089;-67
2023/05/29 14:24:36;;;;;;;;;;;;;;;23.59;39.23;95671.56;10334861;28;2106;-68
2023/05/29 14:29:38;;;;;;;;;;;;;;;23.64;39.93;95666.63;10339178;28;4397;-69
2023/05/29 14:34:40;;;;;;;;;;;;;;;23.84;40.54;95664.66;10342220;28;1950;-69
2023/05/29 14:39:43;;;;;;;;;;;;;;;23.39;41.47;95660.56;10343094;28;1457;-69
2023/05/29 14:44:46;;;;;;;;;;;;;;;23.12;41.89;95661.53;10348445;28;1459;-69
2023/05/29 14:49:49;;;;;;;;;;;;;;;23.66;41.59;95658.81;10352139;28;1544;-69
2023/05/29 14:54:51;;;;;;;;;;;;;;;23.43;41.78;95666.13;10348795;28;1978;-69
2023/05/29 14:59:54;;;;;;;;;;;;;;;23.56;41.42;95658.56;10348126;28;1511;-69
2023/05/29 15:04:57;;;;;;;;;;;;;;;23.29;42.29;95654.88;10346141;28;1480;-69
2023/05/29 15:09:59;;;;;;;;;;;;;;;23.31;43.15;95642.38;10343293;28;1857;-70
2023/05/29 15:15:02;;;;;;;;;;;;;;;23.35;42.79;95646.00;10351497;28;1918;-69
2023/05/29 15:20:05;;;;;;;;;;;;;;;23.38;42.83;95647.22;10345767;28;2446;-68
2023/05/29 15:25:08;;;;;;;;;;;;;;;23.89;42.20;95639.69;10341491;28;1663;-68
2023/05/29 15:30:10;;;;;;;;;;;;;;;23.62;42.95;95636.00;10340885;28;4479;-68
2023/05/29 15:35:13;;;;;;;;;;;;;;;23.20;42.36;95641.31;10336508;28;1978;-68
2023/05/29 15:40:15;;;;;;;;;;;;;;;23.48;41.03;95638.44;10339781;28;1631;-69
2023/05/29 15:45:19;;;;;;;;;;;;;;;23.73;42.41;95636.22;10342912;28;1437;-69
2023/05/29 15:50:21;;;;;;;;;;;;;;;23.41;42.40;95630.03;10347901;28;1534;-68
2023/05/29 15:55:23;;;;;;;;;;;;;;;23.39;41.73;95633.13;10348913;28;1887;-68
2023/05/29 16:00:26;;;;;;;;;;;;;;;23.05;41.10;95631.19;10352866;28;1538;-68
2023/05/29 16:05:28;;;;;;;;;;;;;;;23.04;41.91;95627.66;10344309;28;1475;-68
2023/05/29 16:10:31;;;;;;;;;;;;;;;23.09;41.56;95630.13;10338768;28;1631;-68
2023/05/29 16:15:33;;;;;;;;;;;;;;;22.51;40.27;95634.56;10342425;28;2280;-69
2023/05/29 16:20:35;;;;;;;;;;;;;;;22.35;40.28;95634.56;10345010;28;1265;-68
2023/05/29 16:25:38;;;;;;;;;;;;;;;22.33;40.19;95634.13;10347795;28;1558;-68
2023/05/29 16:30:41;;;;;;;;;;;;;;;22.29;40.26;95646.94;10351132;28;4573;-68
2023/05/29 16:35:44;;;;;;;;;;;;;;;21.99;39.35;95633.59;10350277;28;1907;-68
2023/05/29 16:40:46;;;;;;;;;;;;;;;21.98;40.46;95640.22;10346701;28;1380;-70
2023/05/29 16:45:50;;;;;;;;;;;;;;;21.94;41.78;95641.25;10343330;28;1515;-69
2023/05/29 16:50:52;;;;;;;;;;;;;;;21.88;41.97;95632.50;10347856;28;1758;-69
2023/05/29 16:55:55;;;;;;;;;;;;;;;21.70;42.47;95637.50;10352018;28;1918;-69
2023/05/29 17:00:57;;;;;;;;;;;;;;;21.71;41.85;95641.03;10348845;28;1512;-69
2023/05/29 17:06:00;;;;;;;;;;;;;;;21.65;42.84;95639.69;10351967;28;1731;-69
2023/05/29 17:11:03;;;;;;;;;;;;;;;21.71;43.53;95643.78;10364239;28;2569;-69
2023/05/29 17:16:05;;;;;;;;;;;;;;;21.58;43.79;95641.09;10350227;28;1923;-67
2023/05/29 17:21:08;;;;;;;;;;;;;;;21.54;44.42;95644.84;10348823;28;1541;-67
2023/05/29 17:26:10;;;;;;;;;;;;;;;21.44;43.32;95640.69;10342993;28;1517;-68
2023/05/29 17:31:13;;;;;;;;;;;;;;;21.34;43.48;95643.88;10340202;28;4475;-67
2023/05/29 17:36:15;;;;;;;;;;;;;;;21.28;43.98;95645.22;10344467;28;1895;-68
2023/05/29 17:41:18;;;;;;;;;;;;;;;21.25;44.33;95644.00;10344442;28;1511;-69
2023/05/29 17:46:22;;;;;;;;;;;;;;;21.25;45.58;95643.19;10341662;28;1520;-67
2023/05/29 17:51:24;;;;;;;;;;;;;;;21.13;43.80;95654.16;10342966;28;1504;-67
2023/05/29 17:56:27;;;;;;;;;;;;;;;21.03;43.61;95648.00;10348938;28;1898;-67
2023/05/29 18:01:30;;;;;;;;;;;;;;;20.98;44.73;95663.81;10344543;28;1512;-67
2023/05/29 18:06:32;;;;;;;;;;;;;;;20.84;45.73;95661.44;10341177;28;2430;-68
2023/05/29 18:11:39;;;;;;;;;;;;;;;20.76;47.01;95665.09;10347473;28;1537;-70
2023/05/29 18:16:41;;;;;;;;;;;;;;;20.55;48.95;95669.84;10340428;28;1918;-68
2023/05/29 18:21:43;;;;;;;;;;;;;;;20.48;49.40;95668.47;10337217;28;1272;-69
2023/05/29 18:26:46;;;;;;;;;;;;;;;20.42;49.80;95666.25;10333563;28;1913;-69
2023/05/29 18:31:48;;;;;;;;;;;;;;;20.23;50.92;95662.16;10330177;28;1844;-69
2023/05/29 18:36:51;;;;;;;;;;;;;;;20.14;52.13;95666.09;10337715;28;1986;-69
2023/05/29 18:41:53;;;;;;;;;;;;;;;20.04;53.36;95671.97;10334529;28;1887;-70
2023/05/29 18:46:56;;;;;;;;;;;;;;;19.90;55.42;95667.59;10336487;28;1906;-70
2023/05/29 18:52:02;;;;;;;;;;;;;;;19.71;57.98;95667.31;10335289;28;1992;-70
2023/05/29 18:57:07;;;;;;;;;;;;;;;19.63;60.39;95668.97;10336905;28;2280;-69
2023/05/29 19:02:09;;;;;;;;;;;;;;;19.39;64.44;95672.34;10337147;28;1985;-69
2023/05/29 19:07:12;;;;;;;;;;;;;;;19.25;67.18;95680.00;10336278;28;2092;-68
2023/05/29 19:12:15;;;;;;;;;;;;;;;19.04;73.81;95684.63;10331247;28;1961;-70
2023/05/29 19:17:18;;;;;;;;;;;;;;;18.86;78.57;95689.34;10335254;28;2055;-69
2023/05/29 19:22:21;;;;;;;;;;;;;;;18.75;80.86;95685.41;10345455;28;1863;-70
2023/05/29 19:27:24;;;;;;;;;;;;;;;18.81;82.21;95693.06;10342088;28;4506;-69
2023/05/29 19:32:27;;;;;;;;;;;;;;;18.68;85.08;95688.63;10345551;28;1827;-68
2023/05/29 19:37:30;;;;;;;;;;;;;;;18.66;86.65;95699.03;10343663;28;1974;-71
2023/05/29 19:42:32;;;;;;;;;;;;;;;18.49;89.80;95707.25;10345063;28;1917;-69
2023/05/29 19:47:35;;;;;;;;;;;;;;;18.22;93.74;95717.41;10345009;28;1890;-69
2023/05/29 19:52:38;;;;;;;;;;;;;;;18.07;96.16;95723.38;10347643;28;1963;-70
2023/05/29 19:57:41;;;;;;;;;;;;;;;18.13;97.22;95741.09;10343975;28;1918;-69
2023/05/29 20:02:43;;;;;;;;;;;;;;;18.01;97.87;95736.34;10342689;28;2225;-68
2023/05/29 20:07:45;;;;;;;;;;;;;;;17.95;99.91;95737.63;10347729;28;1911;-69
2023/05/29 20:12:48;;;;;;;;;;;;;;;17.87;100.00;95740.31;10344022;28;1963;-67
2023/05/29 20:17:51;;;;;;;;;;;;;;;17.91;100.00;95741.28;10342082;28;1918;-71
2023/05/29 20:22:53;;;;;;;;;;;;;;;17.79;100.00;95744.66;10336592;28;1905;-70
2023/05/29 20:27:55;;;;;;;;;;;;;;;17.60;100.00;95750.38;10332912;28;4409;-69
2023/05/29 20:32:58;;;;;;;;;;;;;;;17.66;100.00;95753.75;10345434;28;1911;-71
2023/05/29 20:38:01;;;;;;;;;;;;;;;17.49;100.00;95757.22;10336784;28;1977;-70
2023/05/29 20:43:05;;;;;;;;;;;;;;;17.34;100.00;95753.06;10339275;28;1864;-70
2023/05/29 20:48:08;;;;;;;;;;;;;;;17.41;100.00;95761.53;10341027;28;1960;-70
2023/05/29 20:53:10;;;;;;;;;;;;;;;17.33;100.00;95761.53;10340453;28;1907;-70
2023/05/29 20:58:13;;;;;;;;;;;;;;;17.44;100.00;95757.41;10340440;28;2220;-70
2023/05/29 21:03:15;;;;;;;;;;;;;;;17.43;100.00;95758.50;10340196;28;1899;-70
2023/05/29 21:08:17;;;;;;;;;;;;;;;17.50;100.00;95769.72;10340927;28;1844;-70
2023/05/29 21:13:20;;;;;;;;;;;;;;;17.47;100.00;95776.56;10341755;28;1887;-70
2023/05/29 21:18:23;;;;;;;;;;;;;;;17.37;100.00;95767.91;10340803;28;1906;-69
2023/05/29 21:23:28;;;;;;;;;;;;;;;17.52;100.00;95759.31;10341938;28;1824;-70
2023/05/29 21:28:30;;;;;;;;;;;;;;;17.34;100.00;95766.66;10343896;28;4443;-70
2023/05/29 21:33:34;;;;;;;;;;;;;;;17.35;100.00;95772.88;10340104;28;1969;-69
2023/05/29 21:38:36;;;;;;;;;;;;;;;17.35;100.00;95772.88;10345211;28;1960;-69
2023/05/29 21:43:39;;;;;;;;;;;;;;;17.47;100.00;95762.19;10340840;28;1910;-70
2023/05/29 21:48:42;;;;;;;;;;;;;;;17.30;100.00;95762.94;10341468;28;1894;-70
2023/05/29 21:53:44;;;;;;;;;;;;;;;17.20;100.00;95764.06;10341836;28;1998;-69
2023/05/29 21:58:47;;;;;;;;;;;;;;;17.18;100.00;95762.78;10341715;28;2030;-69
2023/05/29 22:03:51;;;;;;;;;;;;;;;17.16;100.00;95768.50;10340965;28;1919;-68
2023/05/29 22:08:53;;;;;;;;;;;;;;;16.96;100.00;95760.94;10339883;28;1897;-69
2023/05/29 22:13:56;;;;;;;;;;;;;;;17.00;100.00;95757.28;10343508;28;1910;-68
2023/05/29 22:18:59;;;;;;;;;;;;;;;17.02;100.00;95754.25;10340247;28;1896;-69
2023/05/29 22:24:04;;;;;;;;;;;;;;;16.84;100.00;95749.88;10341280;28;1864;-68
2023/05/29 22:29:07;;;;;;;;;;;;;;;16.76;100.00;95743.31;10340141;28;1867;-70
2023/05/29 22:34:09;;;;;;;;;;;;;;;16.61;100.00;95743.69;10343254;28;2376;-69
2023/05/29 22:39:11;;;;;;;;;;;;;;;16.52;100.00;95743.66;10337721;28;1856;-69
2023/05/29 22:44:15;;;;;;;;;;;;;;;16.20;100.00;95740.13;10338932;28;2161;-68
2023/05/29 22:49:17;;;;;;;;;;;;;;;16.17;100.00;95732.63;10340923;28;2609;-71
2023/05/29 22:54:20;;;;;;;;;;;;;;;15.80;100.00;95733.78;10342476;28;2001;-70
2023/05/29 22:59:24;;;;;;;;;;;;;;;15.70;100.00;95730.50;10349271;28;1882;-70
2023/05/29 23:04:26;;;;;;;;;;;;;;;15.54;100.00;95728.13;10346735;28;1934;-70
2023/05/29 23:09:29;;;;;;;;;;;;;;;15.74;100.00;95720.66;10348392;28;1930;-70
2023/05/29 23:14:32;;;;;;;;;;;;;;;15.60;100.00;95718.78;10350647;28;1966;-70
2023/05/29 23:19:35;;;;;;;;;;;;;;;15.72;100.00;95722.91;10345056;28;1939;-69
2023/05/29 23:24:38;;;;;;;;;;;;;;;15.55;100.00;95718.09;10347322;28;1925;-70
2023/05/29 23:29:40;;;;;;;;;;;;;;;15.39;100.00;95726.56;10347777;28;1887;-70
2023/05/29 23:34:43;;;;;;;;;;;;;;;15.43;100.00;95725.97;10346643;28;1984;-69
2023/05/29 23:39:45;;;;;;;;;;;;;;;15.16;100.00;95729.53;10346348;28;1832;-69
2023/05/29 23:44:50;;;;;;;;;;;;;;;14.98;100.00;95736.66;10350835;28;2253;-70
2023/05/29 23:49:52;;;;;;;;;;;;;;;14.97;100.00;95735.88;10346497;28;1927;-70
2023/05/29 23:54:55;;;;;;;;;;;;;;;14.74;100.00;95732.25;10342824;28;1934;-70
2023/05/29 23:59:58;;;;;;;;;;;;;;;14.70;100.00;95742.09;10345418;28;2050;-70
